EZY65KJ EGKK-LFPG
Flight info
| Callsign | EZY65KJ |
|---|---|
| Flight time | 0h 33m |
| Altitude | 23000 |
| Route | SFD M605 HARDY UM605 BIBAX |
| Aircraft | A20N/M-SDE2E3FGHIRWXY/LB1 |
Departure
| Time | 2026-05-08 12:40 |
|---|---|
| Airport | London Gatwick Airport (EGKK) |
Arrival
| Time | 2026-05-08 13:14 |
|---|---|
| Airport | Charles de Gaulle International Airport (LFPG) |
| Time | Latitude | Longitude | Altitude | Speed | Heading |
|---|---|---|---|---|---|
| 2026-05-08 12:05 | 51.15592 | -0.17626 | 208 ft | 0 kts | 347° |
| 2026-05-08 12:24 | 51.15589 | -0.17625 | 216 ft | 3 kts | 347° |
| 2026-05-08 12:25 | 51.15571 | -0.17619 | 211 ft | 3 kts | 347° |
| 2026-05-08 12:25 | 51.15555 | -0.17613 | 213 ft | 3 kts | 341° |
| 2026-05-08 12:25 | 51.15540 | -0.17597 | 214 ft | 3 kts | 301° |
| 2026-05-08 12:25 | 51.15535 | -0.17570 | 215 ft | 3 kts | 261° |
| 2026-05-08 12:26 | 51.15536 | -0.17563 | 211 ft | 0 kts | 252° |
| 2026-05-08 12:27 | 51.15533 | -0.17571 | 214 ft | 3 kts | 241° |
| 2026-05-08 12:27 | 51.15532 | -0.17574 | 220 ft | 0 kts | 244° |
| 2026-05-08 12:27 | 51.15525 | -0.17617 | 217 ft | 8 kts | 256° |
| 2026-05-08 12:27 | 51.15507 | -0.17743 | 209 ft | 15 kts | 257° |
| 2026-05-08 12:28 | 51.15480 | -0.17945 | 212 ft | 22 kts | 258° |
| 2026-05-08 12:28 | 51.15450 | -0.18162 | 215 ft | 19 kts | 257° |
| 2026-05-08 12:28 | 51.15380 | -0.18274 | 208 ft | 17 kts | 175° |
| 2026-05-08 12:28 | 51.15329 | -0.18260 | 208 ft | 8 kts | 168° |
| 2026-05-08 12:29 | 51.15276 | -0.18241 | 210 ft | 0 kts | 168° |
| 2026-05-08 12:29 | 51.15272 | -0.18240 | 208 ft | 3 kts | 168° |
| 2026-05-08 12:29 | 51.15231 | -0.18228 | 217 ft | 9 kts | 176° |
| 2026-05-08 12:29 | 51.15187 | -0.18318 | 217 ft | 15 kts | 258° |
| 2026-05-08 12:30 | 51.15161 | -0.18510 | 216 ft | 20 kts | 257° |
| 2026-05-08 12:30 | 51.15130 | -0.18737 | 208 ft | 13 kts | 258° |
| 2026-05-08 12:30 | 51.15107 | -0.18913 | 209 ft | 19 kts | 258° |
| 2026-05-08 12:30 | 51.15074 | -0.19150 | 211 ft | 22 kts | 257° |
| 2026-05-08 12:31 | 51.15038 | -0.19410 | 215 ft | 27 kts | 258° |
| 2026-05-08 12:31 | 51.15009 | -0.19621 | 217 ft | 21 kts | 257° |
| 2026-05-08 12:31 | 51.14974 | -0.19873 | 208 ft | 19 kts | 257° |
| 2026-05-08 12:31 | 51.14941 | -0.20115 | 218 ft | 25 kts | 257° |
| 2026-05-08 12:32 | 51.14901 | -0.20407 | 216 ft | 26 kts | 257° |
| 2026-05-08 12:32 | 51.14872 | -0.20610 | 214 ft | 21 kts | 257° |
| 2026-05-08 12:32 | 51.14837 | -0.20863 | 213 ft | 26 kts | 257° |
| 2026-05-08 12:32 | 51.14805 | -0.21095 | 210 ft | 17 kts | 257° |
| 2026-05-08 12:33 | 51.14776 | -0.21239 | 208 ft | 12 kts | 257° |
| 2026-05-08 12:33 | 51.14751 | -0.21378 | 215 ft | 12 kts | 233° |
| 2026-05-08 12:33 | 51.14736 | -0.21395 | 213 ft | 0 kts | 205° |
| 2026-05-08 12:38 | 51.14734 | -0.21396 | 208 ft | 2 kts | 202° |
| 2026-05-08 12:38 | 51.14701 | -0.21395 | 212 ft | 8 kts | 170° |
| 2026-05-08 12:38 | 51.14640 | -0.21341 | 215 ft | 12 kts | 161° |
| 2026-05-08 12:39 | 51.14550 | -0.21278 | 216 ft | 16 kts | 139° |
| 2026-05-08 12:39 | 51.14533 | -0.21095 | 214 ft | 19 kts | 79° |
| 2026-05-08 12:39 | 51.14563 | -0.20870 | 211 ft | 23 kts | 77° |
| 2026-05-08 12:39 | 51.14599 | -0.20607 | 219 ft | 26 kts | 78° |
| 2026-05-08 12:40 | 51.14653 | -0.20215 | 220 ft | 59 kts | 78° |
| 2026-05-08 12:40 | 51.14799 | -0.19171 | 220 ft | 131 kts | 77° |
| 2026-05-08 12:40 | 51.15028 | -0.17533 | 470 ft | 162 kts | 79° |
| 2026-05-08 12:40 | 51.15280 | -0.15719 | 959 ft | 178 kts | 80° |
| 2026-05-08 12:41 | 51.15556 | -0.13660 | 1384 ft | 202 kts | 79° |
| 2026-05-08 12:41 | 51.15861 | -0.11368 | 1822 ft | 225 kts | 80° |
| 2026-05-08 12:41 | 51.16137 | -0.08810 | 2362 ft | 242 kts | 92° |
| 2026-05-08 12:41 | 51.15614 | -0.06397 | 2934 ft | 242 kts | 129° |
| 2026-05-08 12:42 | 51.14157 | -0.04875 | 3554 ft | 256 kts | 161° |
| 2026-05-08 12:42 | 51.12425 | -0.04235 | 4133 ft | 264 kts | 169° |
| 2026-05-08 12:42 | 51.10593 | -0.03726 | 4730 ft | 268 kts | 169° |
| 2026-05-08 12:42 | 51.08771 | -0.03072 | 5321 ft | 270 kts | 166° |
| 2026-05-08 12:43 | 51.06945 | -0.02288 | 5921 ft | 277 kts | 165° |
| 2026-05-08 12:43 | 51.05014 | -0.01415 | 6540 ft | 300 kts | 166° |
| 2026-05-08 12:43 | 51.02947 | -0.00457 | 7118 ft | 319 kts | 165° |
| 2026-05-08 12:43 | 51.00742 | 0.00577 | 7719 ft | 340 kts | 165° |
| 2026-05-08 12:44 | 50.98416 | 0.01674 | 8318 ft | 359 kts | 165° |
| 2026-05-08 12:44 | 50.95981 | 0.02824 | 8937 ft | 372 kts | 165° |
| 2026-05-08 12:44 | 50.93476 | 0.04007 | 9567 ft | 380 kts | 165° |
| 2026-05-08 12:44 | 50.90923 | 0.05213 | 10187 ft | 385 kts | 165° |
| 2026-05-08 12:45 | 50.88343 | 0.06429 | 10751 ft | 388 kts | 165° |
| 2026-05-08 12:45 | 50.85736 | 0.07653 | 11343 ft | 391 kts | 165° |
| 2026-05-08 12:45 | 50.83108 | 0.08885 | 11926 ft | 395 kts | 165° |
| 2026-05-08 12:45 | 50.80462 | 0.10125 | 12529 ft | 399 kts | 165° |
| 2026-05-08 12:46 | 50.77792 | 0.11389 | 13140 ft | 403 kts | 163° |
| 2026-05-08 12:46 | 50.75229 | 0.13242 | 13756 ft | 408 kts | 150° |
| 2026-05-08 12:46 | 50.72855 | 0.15746 | 14338 ft | 412 kts | 144° |
| 2026-05-08 12:46 | 50.70603 | 0.18563 | 14896 ft | 416 kts | 141° |
| 2026-05-08 12:47 | 50.68393 | 0.21534 | 15467 ft | 419 kts | 140° |
| 2026-05-08 12:47 | 50.66166 | 0.24571 | 16049 ft | 423 kts | 140° |
| 2026-05-08 12:47 | 50.63948 | 0.27562 | 16640 ft | 426 kts | 141° |
| 2026-05-08 12:47 | 50.61672 | 0.30570 | 17246 ft | 429 kts | 141° |
| 2026-05-08 12:48 | 50.59361 | 0.33567 | 17855 ft | 433 kts | 141° |
| 2026-05-08 12:48 | 50.57007 | 0.36581 | 18473 ft | 437 kts | 142° |
| 2026-05-08 12:48 | 50.54617 | 0.39615 | 19021 ft | 442 kts | 142° |
| 2026-05-08 12:48 | 50.52212 | 0.42660 | 19576 ft | 446 kts | 142° |
| 2026-05-08 12:49 | 50.49778 | 0.45737 | 20147 ft | 450 kts | 142° |
| 2026-05-08 12:49 | 50.47330 | 0.48829 | 20722 ft | 453 kts | 142° |
| 2026-05-08 12:49 | 50.44863 | 0.51941 | 21143 ft | 461 kts | 142° |
| 2026-05-08 12:49 | 50.42336 | 0.55126 | 21514 ft | 468 kts | 142° |
| 2026-05-08 12:50 | 50.39793 | 0.58329 | 22028 ft | 472 kts | 142° |
| 2026-05-08 12:50 | 50.37218 | 0.61569 | 22524 ft | 476 kts | 142° |
| 2026-05-08 12:50 | 50.34628 | 0.64824 | 23006 ft | 479 kts | 142° |
| 2026-05-08 12:50 | 50.32014 | 0.68104 | 23123 ft | 482 kts | 142° |
| 2026-05-08 12:51 | 50.29425 | 0.71349 | 23082 ft | 483 kts | 142° |
| 2026-05-08 12:51 | 50.24166 | 0.77924 | 23082 ft | 483 kts | 142° |
| 2026-05-08 12:51 | 50.21548 | 0.81191 | 23080 ft | 483 kts | 142° |
| 2026-05-08 12:52 | 50.18916 | 0.84470 | 23079 ft | 483 kts | 142° |
| 2026-05-08 12:52 | 50.13661 | 0.91000 | 23076 ft | 482 kts | 142° |
| 2026-05-08 12:52 | 50.11037 | 0.94254 | 23073 ft | 482 kts | 142° |
| 2026-05-08 12:53 | 50.08411 | 0.97505 | 23073 ft | 482 kts | 142° |
| 2026-05-08 12:53 | 50.05722 | 1.00598 | 23067 ft | 481 kts | 149° |
| 2026-05-08 12:53 | 50.02791 | 1.03085 | 23069 ft | 480 kts | 154° |
| 2026-05-08 12:53 | 49.99825 | 1.05337 | 23067 ft | 480 kts | 155° |
| 2026-05-08 12:54 | 49.96804 | 1.07587 | 23064 ft | 480 kts | 155° |
| 2026-05-08 12:54 | 49.93821 | 1.09811 | 22802 ft | 475 kts | 155° |
| 2026-05-08 12:54 | 49.90839 | 1.12038 | 22349 ft | 477 kts | 155° |
| 2026-05-08 12:54 | 49.87852 | 1.14270 | 21773 ft | 474 kts | 155° |
| 2026-05-08 12:55 | 49.84888 | 1.16486 | 21174 ft | 471 kts | 155° |
| 2026-05-08 12:55 | 49.81947 | 1.18684 | 20587 ft | 466 kts | 155° |
| 2026-05-08 12:55 | 49.79042 | 1.20853 | 20003 ft | 461 kts | 155° |
| 2026-05-08 12:55 | 49.77132 | 1.22277 | 19624 ft | 458 kts | 155° |
| 2026-05-08 12:56 | 49.74267 | 1.24412 | 19047 ft | 453 kts | 155° |
| 2026-05-08 12:56 | 49.70537 | 1.27189 | 18330 ft | 447 kts | 155° |
| 2026-05-08 12:56 | 49.67749 | 1.29258 | 17724 ft | 441 kts | 155° |
| 2026-05-08 12:56 | 49.65923 | 1.30614 | 17316 ft | 436 kts | 155° |
| 2026-05-08 12:57 | 49.63208 | 1.32628 | 16703 ft | 431 kts | 155° |
| 2026-05-08 12:57 | 49.60487 | 1.34646 | 16106 ft | 426 kts | 155° |
| 2026-05-08 12:57 | 49.57853 | 1.36593 | 15530 ft | 422 kts | 155° |
| 2026-05-08 12:57 | 49.55221 | 1.38536 | 14961 ft | 418 kts | 155° |
| 2026-05-08 12:58 | 49.52603 | 1.40466 | 14400 ft | 414 kts | 155° |
| 2026-05-08 12:58 | 49.50009 | 1.42378 | 13836 ft | 411 kts | 155° |
| 2026-05-08 12:58 | 49.47440 | 1.44267 | 13222 ft | 407 kts | 155° |
| 2026-05-08 12:58 | 49.44903 | 1.46134 | 12600 ft | 398 kts | 154° |
| 2026-05-08 12:59 | 49.42441 | 1.47942 | 12013 ft | 387 kts | 154° |
| 2026-05-08 12:59 | 49.40043 | 1.49699 | 11422 ft | 376 kts | 154° |
| 2026-05-08 12:59 | 49.37730 | 1.51394 | 11102 ft | 360 kts | 154° |
| 2026-05-08 12:59 | 49.35538 | 1.52999 | 11056 ft | 338 kts | 154° |
| 2026-05-08 13:00 | 49.33474 | 1.54510 | 11046 ft | 318 kts | 154° |
| 2026-05-08 13:00 | 49.31615 | 1.56166 | 11046 ft | 298 kts | 140° |
| 2026-05-08 13:00 | 49.30337 | 1.58522 | 11049 ft | 284 kts | 116° |
| 2026-05-08 13:00 | 49.29794 | 1.61401 | 11055 ft | 282 kts | 98° |
| 2026-05-08 13:01 | 49.29617 | 1.64358 | 11058 ft | 283 kts | 94° |
| 2026-05-08 13:01 | 49.29501 | 1.67385 | 11061 ft | 284 kts | 94° |
| 2026-05-08 13:01 | 49.29387 | 1.70407 | 10997 ft | 284 kts | 94° |
| 2026-05-08 13:01 | 49.29070 | 1.73364 | 10634 ft | 281 kts | 107° |
| 2026-05-08 13:02 | 49.28219 | 1.76044 | 10234 ft | 280 kts | 127° |
| 2026-05-08 13:02 | 49.26861 | 1.78196 | 9825 ft | 280 kts | 138° |
| 2026-05-08 13:02 | 49.25371 | 1.80093 | 9383 ft | 279 kts | 141° |
| 2026-05-08 13:02 | 49.23870 | 1.81913 | 8950 ft | 278 kts | 141° |
| 2026-05-08 13:03 | 49.22355 | 1.83730 | 8538 ft | 276 kts | 141° |
| 2026-05-08 13:03 | 49.20844 | 1.85537 | 8095 ft | 276 kts | 141° |
| 2026-05-08 13:03 | 49.19325 | 1.87353 | 7588 ft | 277 kts | 141° |
| 2026-05-08 13:03 | 49.17795 | 1.89180 | 7083 ft | 279 kts | 142° |
| 2026-05-08 13:04 | 49.16271 | 1.90999 | 6597 ft | 279 kts | 142° |
| 2026-05-08 13:04 | 49.14727 | 1.92840 | 6031 ft | 281 kts | 141° |
| 2026-05-08 13:04 | 49.13708 | 1.94055 | 5661 ft | 282 kts | 141° |
| 2026-05-08 13:05 | 49.12953 | 1.94954 | 5397 ft | 282 kts | 141° |
| 2026-05-08 13:05 | 49.11553 | 1.96620 | 5075 ft | 276 kts | 141° |
| 2026-05-08 13:05 | 49.10082 | 1.98369 | 4992 ft | 262 kts | 141° |
| 2026-05-08 13:05 | 49.08655 | 2.00067 | 4991 ft | 260 kts | 141° |
| 2026-05-08 13:06 | 49.07251 | 2.01740 | 4991 ft | 260 kts | 141° |
| 2026-05-08 13:06 | 49.05858 | 2.03394 | 4998 ft | 243 kts | 141° |
| 2026-05-08 13:06 | 49.04577 | 2.04913 | 5001 ft | 224 kts | 141° |
| 2026-05-08 13:06 | 49.03375 | 2.06338 | 4996 ft | 216 kts | 141° |
| 2026-05-08 13:07 | 49.02189 | 2.07746 | 4996 ft | 216 kts | 141° |
| 2026-05-08 13:07 | 49.01015 | 2.09138 | 4993 ft | 216 kts | 141° |
| 2026-05-08 13:07 | 48.99831 | 2.10541 | 4993 ft | 215 kts | 141° |
| 2026-05-08 13:07 | 48.98650 | 2.11939 | 4992 ft | 215 kts | 141° |
| 2026-05-08 13:08 | 48.97658 | 2.13611 | 5002 ft | 213 kts | 115° |
| 2026-05-08 13:08 | 48.97256 | 2.15765 | 4996 ft | 213 kts | 96° |
| 2026-05-08 13:08 | 48.97235 | 2.17980 | 4988 ft | 205 kts | 86° |
| 2026-05-08 13:08 | 48.97352 | 2.20101 | 4990 ft | 200 kts | 85° |
| 2026-05-08 13:09 | 48.97477 | 2.22218 | 4888 ft | 200 kts | 84° |
| 2026-05-08 13:09 | 48.97592 | 2.24317 | 4625 ft | 199 kts | 85° |
| 2026-05-08 13:09 | 48.97699 | 2.26409 | 4322 ft | 197 kts | 85° |
| 2026-05-08 13:09 | 48.97807 | 2.28465 | 3998 ft | 197 kts | 85° |
| 2026-05-08 13:10 | 48.97917 | 2.30544 | 3711 ft | 196 kts | 85° |
| 2026-05-08 13:10 | 48.98026 | 2.32589 | 3454 ft | 191 kts | 85° |
| 2026-05-08 13:10 | 48.98130 | 2.34551 | 3199 ft | 181 kts | 85° |
| 2026-05-08 13:10 | 48.98230 | 2.36445 | 2969 ft | 180 kts | 84° |
| 2026-05-08 13:11 | 48.98329 | 2.38324 | 2714 ft | 175 kts | 85° |
| 2026-05-08 13:11 | 48.98425 | 2.40143 | 2496 ft | 172 kts | 85° |
| 2026-05-08 13:11 | 48.98522 | 2.41967 | 2255 ft | 171 kts | 84° |
| 2026-05-08 13:11 | 48.98612 | 2.43724 | 2060 ft | 167 kts | 84° |
| 2026-05-08 13:12 | 48.98709 | 2.45487 | 1757 ft | 168 kts | 85° |
| 2026-05-08 13:12 | 48.98802 | 2.47250 | 1645 ft | 169 kts | 84° |
| 2026-05-08 13:12 | 48.98902 | 2.49040 | 1447 ft | 169 kts | 84° |
| 2026-05-08 13:12 | 48.98998 | 2.50785 | 1150 ft | 168 kts | 84° |
| 2026-05-08 13:13 | 48.99085 | 2.52591 | 958 ft | 165 kts | 84° |
| 2026-05-08 13:13 | 48.99168 | 2.54303 | 739 ft | 160 kts | 84° |
| 2026-05-08 13:13 | 48.99262 | 2.55950 | 506 ft | 151 kts | 84° |
| 2026-05-08 13:13 | 48.99345 | 2.57479 | 357 ft | 141 kts | 85° |
| 2026-05-08 13:14 | 48.99413 | 2.58773 | 362 ft | 95 kts | 85° |
| 2026-05-08 13:14 | 48.99464 | 2.59235 | 356 ft | 20 kts | 65° |
| 2026-05-08 13:14 | 48.99530 | 2.59460 | 360 ft | 28 kts | 66° |
| 2026-05-08 13:14 | 48.99578 | 2.59619 | 360 ft | 17 kts | 64° |
| 2026-05-08 13:15 | 48.99631 | 2.59800 | 363 ft | 10 kts | 71° |
| 2026-05-08 13:15 | 48.99656 | 2.59922 | 356 ft | 0 kts | 56° |
| 2026-05-08 13:15 | 48.99696 | 2.59961 | 360 ft | 13 kts | 14° |
| 2026-05-08 13:15 | 48.99827 | 2.59955 | 362 ft | 24 kts | 357° |
| 2026-05-08 13:16 | 48.99914 | 2.60027 | 363 ft | 1 kts | 46° |
| 2026-05-08 13:16 | 48.99940 | 2.60059 | 364 ft | 0 kts | 32° |
| 2026-05-08 13:17 | 48.99977 | 2.60076 | 359 ft | 12 kts | 358° |
| 2026-05-08 13:17 | 49.00056 | 2.59992 | 359 ft | 19 kts | 339° |
| 2026-05-08 13:17 | 49.00095 | 2.59896 | 357 ft | 3 kts | 268° |
| 2026-05-08 13:17 | 49.00091 | 2.59772 | 363 ft | 20 kts | 265° |
| 2026-05-08 13:18 | 49.00121 | 2.59641 | 360 ft | 16 kts | 339° |
| 2026-05-08 13:18 | 49.00169 | 2.59628 | 361 ft | 10 kts | 353° |
| 2026-05-08 13:18 | 49.00287 | 2.59608 | 358 ft | 24 kts | 353° |
| 2026-05-08 13:18 | 49.00468 | 2.59587 | 356 ft | 21 kts | 358° |
| 2026-05-08 13:19 | 49.00652 | 2.59571 | 363 ft | 22 kts | 353° |
| 2026-05-08 13:19 | 49.00843 | 2.59544 | 357 ft | 33 kts | 355° |
| 2026-05-08 13:19 | 49.00998 | 2.59462 | 362 ft | 23 kts | 278° |
| 2026-05-08 13:19 | 49.00990 | 2.59193 | 358 ft | 30 kts | 265° |
| 2026-05-08 13:20 | 49.00952 | 2.58902 | 364 ft | 26 kts | 262° |
| 2026-05-08 13:20 | 49.00939 | 2.58710 | 363 ft | 18 kts | 265° |
| 2026-05-08 13:20 | 49.00927 | 2.58493 | 364 ft | 23 kts | 266° |
| 2026-05-08 13:20 | 49.00915 | 2.58218 | 360 ft | 28 kts | 265° |
| 2026-05-08 13:21 | 49.00901 | 2.57984 | 358 ft | 23 kts | 265° |
| 2026-05-08 13:21 | 49.00887 | 2.57726 | 360 ft | 15 kts | 265° |
| 2026-05-08 13:21 | 49.00879 | 2.57552 | 364 ft | 20 kts | 265° |
| 2026-05-08 13:21 | 49.00865 | 2.57315 | 366 ft | 25 kts | 264° |
| 2026-05-08 13:22 | 49.00849 | 2.57043 | 364 ft | 16 kts | 266° |
| 2026-05-08 13:22 | 49.00848 | 2.57006 | 364 ft | 10 kts | 267° |
| 2026-05-08 13:23 | 49.00844 | 2.56912 | 358 ft | 15 kts | 266° |
| 2026-05-08 13:24 | 49.00834 | 2.56726 | 358 ft | 21 kts | 265° |
| 2026-05-08 13:24 | 49.00810 | 2.56500 | 358 ft | 20 kts | 233° |
| 2026-05-08 13:24 | 49.00722 | 2.56453 | 358 ft | 9 kts | 178° |
| 2026-05-08 13:24 | 49.00641 | 2.56417 | 364 ft | 16 kts | 226° |
| 2026-05-08 13:25 | 49.00608 | 2.56335 | 358 ft | 4 kts | 250° |
| 2026-05-08 13:25 | 49.00603 | 2.56304 | 359 ft | 7 kts | 261° |
| 2026-05-08 13:25 | 49.00594 | 2.56196 | 361 ft | 14 kts | 263° |
| 2026-05-08 13:25 | 49.00565 | 2.56087 | 360 ft | 9 kts | 209° |
| 2026-05-08 13:26 | 49.00547 | 2.56086 | 359 ft | 3 kts | 164° |
| 2026-05-08 13:26 | 49.00535 | 2.56091 | 361 ft | 0 kts | 164° |